Terminal Aerodrome Forecast
Issued by NWS

Home | Current Version | Previous Version | Text Only | Print | Product List | Glossary On
Versions: 1 2 3 4 5 6 7 8 9 10 11 12 13 14 15 16 17 18 19 20 21 22 23 24 25 26
000
FTUS46 KLOX 200500 RRA
TAFLAX
TAF
KLAX 200548Z 2006/2112 VRB03KT P6SM SCT040 BKN120
     FM201200 VRB03KT 5SM BR BKN015
     FM201700 VRB03KT P6SM BKN030
     FM202000 26007KT P6SM SCT040
     FM210400 VRB03KT P6SM BKN040=

USA.gov is the U.S. government's official web portal to all federal, state and local government web resources and services.